sensor_id;sensor_type;location;lat;lon;timestamp;P1;durP1;ratioP1;P2;durP2;ratioP2
19251;SDS011;9760;50.944;5.304;2023-06-04T00:02:16;2.90;;;1.20;;
19251;SDS011;9760;50.944;5.304;2023-06-04T00:04:42;4.27;;;1.30;;
19251;SDS011;9760;50.944;5.304;2023-06-04T00:07:08;4.80;;;1.20;;
19251;SDS011;9760;50.944;5.304;2023-06-04T00:09:33;3.10;;;1.33;;
19251;SDS011;9760;50.944;5.304;2023-06-04T00:11:59;1.23;;;1.00;;
19251;SDS011;9760;50.944;5.304;2023-06-04T00:14:25;4.40;;;1.10;;
19251;SDS011;9760;50.944;5.304;2023-06-04T00:16:51;8.13;;;1.40;;
19251;SDS011;9760;50.944;5.304;2023-06-04T00:19:16;2.27;;;1.07;;
19251;SDS011;9760;50.944;5.304;2023-06-04T00:21:42;2.00;;;1.00;;
19251;SDS011;9760;50.944;5.304;2023-06-04T00:24:07;9.13;;;1.63;;
19251;SDS011;9760;50.944;5.304;2023-06-04T00:26:33;5.77;;;1.40;;
19251;SDS011;9760;50.944;5.304;2023-06-04T00:29:00;3.57;;;1.43;;
19251;SDS011;9760;50.944;5.304;2023-06-04T00:31:26;1.50;;;1.00;;
19251;SDS011;9760;50.944;5.304;2023-06-04T00:33:52;5.03;;;1.20;;
19251;SDS011;9760;50.944;5.304;2023-06-04T00:36:17;1.97;;;1.17;;
19251;SDS011;9760;50.944;5.304;2023-06-04T00:38:43;3.63;;;0.90;;
19251;SDS011;9760;50.944;5.304;2023-06-04T00:41:08;4.20;;;1.57;;
19251;SDS011;9760;50.944;5.304;2023-06-04T00:43:35;7.90;;;1.63;;
19251;SDS011;9760;50.944;5.304;2023-06-04T00:46:01;3.73;;;1.03;;
19251;SDS011;9760;50.944;5.304;2023-06-04T00:48:28;2.77;;;1.20;;
19251;SDS011;9760;50.944;5.304;2023-06-04T00:50:55;2.33;;;1.17;;
19251;SDS011;9760;50.944;5.304;2023-06-04T00:53:21;3.00;;;1.20;;
19251;SDS011;9760;50.944;5.304;2023-06-04T00:55:48;1.10;;;0.83;;
19251;SDS011;9760;50.944;5.304;2023-06-04T00:58:14;2.20;;;1.37;;
19251;SDS011;9760;50.944;5.304;2023-06-04T01:00:41;1.87;;;1.20;;
19251;SDS011;9760;50.944;5.304;2023-06-04T01:03:15;4.80;;;1.43;;
19251;SDS011;9760;50.944;5.304;2023-06-04T01:05:48;2.53;;;1.23;;
19251;SDS011;9760;50.944;5.304;2023-06-04T01:08:29;7.63;;;1.30;;
19251;SDS011;9760;50.944;5.304;2023-06-04T01:10:55;5.77;;;1.47;;
19251;SDS011;9760;50.944;5.304;2023-06-04T01:13:21;3.80;;;1.50;;
19251;SDS011;9760;50.944;5.304;2023-06-04T01:15:47;2.77;;;1.50;;
19251;SDS011;9760;50.944;5.304;2023-06-04T01:18:22;2.10;;;1.27;;
19251;SDS011;9760;50.944;5.304;2023-06-04T01:21:27;9.53;;;1.30;;
19251;SDS011;9760;50.944;5.304;2023-06-04T01:23:47;9.00;;;1.80;;
19251;SDS011;9760;50.944;5.304;2023-06-04T01:26:24;6.73;;;1.40;;
19251;SDS011;9760;50.944;5.304;2023-06-04T01:28:52;5.30;;;1.40;;
19251;SDS011;9760;50.944;5.304;2023-06-04T01:31:19;3.90;;;1.43;;
19251;SDS011;9760;50.944;5.304;2023-06-04T01:33:50;4.23;;;1.50;;
19251;SDS011;9760;50.944;5.304;2023-06-04T01:36:17;4.60;;;1.77;;
19251;SDS011;9760;50.944;5.304;2023-06-04T01:38:42;3.63;;;1.23;;
19251;SDS011;9760;50.944;5.304;2023-06-04T01:41:08;2.90;;;1.57;;
19251;SDS011;9760;50.944;5.304;2023-06-04T01:43:34;4.53;;;1.63;;
19251;SDS011;9760;50.944;5.304;2023-06-04T01:46:00;2.67;;;1.70;;
19251;SDS011;9760;50.944;5.304;2023-06-04T01:48:26;3.07;;;1.37;;
19251;SDS011;9760;50.944;5.304;2023-06-04T01:50:52;4.07;;;1.63;;
19251;SDS011;9760;50.944;5.304;2023-06-04T01:53:18;6.13;;;1.77;;
19251;SDS011;9760;50.944;5.304;2023-06-04T01:55:43;3.40;;;1.70;;
19251;SDS011;9760;50.944;5.304;2023-06-04T01:58:09;5.13;;;1.80;;
19251;SDS011;9760;50.944;5.304;2023-06-04T02:00:35;5.33;;;2.00;;
19251;SDS011;9760;50.944;5.304;2023-06-04T02:03:00;4.53;;;1.80;;
19251;SDS011;9760;50.944;5.304;2023-06-04T02:05:26;3.93;;;1.40;;
19251;SDS011;9760;50.944;5.304;2023-06-04T02:07:52;4.77;;;1.73;;
19251;SDS011;9760;50.944;5.304;2023-06-04T02:10:18;3.47;;;2.00;;
19251;SDS011;9760;50.944;5.304;2023-06-04T02:12:58;4.47;;;1.87;;
19251;SDS011;9760;50.944;5.304;2023-06-04T02:15:25;7.60;;;2.30;;
19251;SDS011;9760;50.944;5.304;2023-06-04T02:17:53;5.50;;;1.70;;
19251;SDS011;9760;50.944;5.304;2023-06-04T02:20:23;3.90;;;2.10;;
19251;SDS011;9760;50.944;5.304;2023-06-04T02:22:49;3.97;;;1.80;;
19251;SDS011;9760;50.944;5.304;2023-06-04T02:25:14;4.60;;;1.70;;
19251;SDS011;9760;50.944;5.304;2023-06-04T02:27:40;5.23;;;2.00;;
19251;SDS011;9760;50.944;5.304;2023-06-04T02:30:06;6.90;;;1.80;;
19251;SDS011;9760;50.944;5.304;2023-06-04T02:32:32;5.73;;;1.87;;
19251;SDS011;9760;50.944;5.304;2023-06-04T02:35:00;12.00;;;1.60;;
19251;SDS011;9760;50.944;5.304;2023-06-04T02:37:26;3.67;;;2.00;;
19251;SDS011;9760;50.944;5.304;2023-06-04T02:39:52;2.97;;;1.80;;
19251;SDS011;9760;50.944;5.304;2023-06-04T02:42:18;6.40;;;1.93;;
19251;SDS011;9760;50.944;5.304;2023-06-04T02:44:43;5.73;;;2.10;;
19251;SDS011;9760;50.944;5.304;2023-06-04T02:47:09;4.17;;;2.27;;
19251;SDS011;9760;50.944;5.304;2023-06-04T02:49:34;4.80;;;1.90;;
19251;SDS011;9760;50.944;5.304;2023-06-04T02:52:00;3.60;;;2.03;;
19251;SDS011;9760;50.944;5.304;2023-06-04T02:54:26;4.53;;;2.20;;
19251;SDS011;9760;50.944;5.304;2023-06-04T02:56:51;6.33;;;1.73;;
19251;SDS011;9760;50.944;5.304;2023-06-04T02:59:18;5.33;;;2.37;;
19251;SDS011;9760;50.944;5.304;2023-06-04T03:01:44;5.67;;;2.17;;
19251;SDS011;9760;50.944;5.304;2023-06-04T03:04:09;4.77;;;1.80;;
19251;SDS011;9760;50.944;5.304;2023-06-04T03:06:39;4.13;;;2.10;;
19251;SDS011;9760;50.944;5.304;2023-06-04T03:09:09;5.43;;;2.73;;
19251;SDS011;9760;50.944;5.304;2023-06-04T03:11:36;4.47;;;2.10;;
19251;SDS011;9760;50.944;5.304;2023-06-04T03:14:01;4.87;;;2.10;;
19251;SDS011;9760;50.944;5.304;2023-06-04T03:16:27;7.33;;;2.30;;
19251;SDS011;9760;50.944;5.304;2023-06-04T03:18:53;10.30;;;2.77;;
19251;SDS011;9760;50.944;5.304;2023-06-04T03:21:18;2.43;;;1.73;;
19251;SDS011;9760;50.944;5.304;2023-06-04T03:23:44;8.97;;;1.90;;
19251;SDS011;9760;50.944;5.304;2023-06-04T03:26:10;6.37;;;2.33;;
19251;SDS011;9760;50.944;5.304;2023-06-04T03:28:37;6.00;;;2.10;;
19251;SDS011;9760;50.944;5.304;2023-06-04T03:31:03;7.27;;;2.33;;
19251;SDS011;9760;50.944;5.304;2023-06-04T03:33:29;13.23;;;2.20;;
19251;SDS011;9760;50.944;5.304;2023-06-04T03:35:54;7.00;;;1.97;;
19251;SDS011;9760;50.944;5.304;2023-06-04T03:38:23;5.13;;;1.70;;
19251;SDS011;9760;50.944;5.304;2023-06-04T03:40:52;4.67;;;1.83;;
19251;SDS011;9760;50.944;5.304;2023-06-04T03:43:18;6.50;;;2.10;;
19251;SDS011;9760;50.944;5.304;2023-06-04T03:45:44;7.07;;;2.10;;
19251;SDS011;9760;50.944;5.304;2023-06-04T03:48:10;10.40;;;2.10;;
19251;SDS011;9760;50.944;5.304;2023-06-04T03:50:36;3.37;;;2.17;;
19251;SDS011;9760;50.944;5.304;2023-06-04T03:53:02;4.57;;;2.07;;
19251;SDS011;9760;50.944;5.304;2023-06-04T03:55:30;5.50;;;1.87;;
19251;SDS011;9760;50.944;5.304;2023-06-04T03:57:57;8.20;;;2.07;;
19251;SDS011;9760;50.944;5.304;2023-06-04T04:00:23;5.20;;;2.10;;
19251;SDS011;9760;50.944;5.304;2023-06-04T04:02:48;3.23;;;2.00;;
19251;SDS011;9760;50.944;5.304;2023-06-04T04:05:15;10.63;;;2.10;;
19251;SDS011;9760;50.944;5.304;2023-06-04T04:07:41;6.07;;;2.40;;
19251;SDS011;9760;50.944;5.304;2023-06-04T04:10:06;2.67;;;1.97;;
19251;SDS011;9760;50.944;5.304;2023-06-04T04:12:32;10.10;;;2.63;;
19251;SDS011;9760;50.944;5.304;2023-06-04T04:14:58;5.00;;;2.10;;
19251;SDS011;9760;50.944;5.304;2023-06-04T04:17:24;4.97;;;1.80;;
19251;SDS011;9760;50.944;5.304;2023-06-04T04:19:50;4.53;;;2.10;;
19251;SDS011;9760;50.944;5.304;2023-06-04T04:22:16;5.70;;;2.10;;
19251;SDS011;9760;50.944;5.304;2023-06-04T04:24:42;8.07;;;2.10;;
19251;SDS011;9760;50.944;5.304;2023-06-04T04:27:08;4.13;;;2.03;;
19251;SDS011;9760;50.944;5.304;2023-06-04T04:29:36;3.63;;;1.97;;
19251;SDS011;9760;50.944;5.304;2023-06-04T04:32:02;5.13;;;2.10;;
19251;SDS011;9760;50.944;5.304;2023-06-04T04:34:35;6.70;;;2.23;;
19251;SDS011;9760;50.944;5.304;2023-06-04T04:37:05;5.77;;;2.03;;
19251;SDS011;9760;50.944;5.304;2023-06-04T04:39:33;6.97;;;2.03;;
19251;SDS011;9760;50.944;5.304;2023-06-04T04:41:59;3.87;;;2.20;;
19251;SDS011;9760;50.944;5.304;2023-06-04T04:44:25;4.13;;;2.17;;
19251;SDS011;9760;50.944;5.304;2023-06-04T04:46:51;11.80;;;2.33;;
19251;SDS011;9760;50.944;5.304;2023-06-04T04:49:16;7.33;;;2.30;;
19251;SDS011;9760;50.944;5.304;2023-06-04T04:51:42;4.20;;;2.23;;
19251;SDS011;9760;50.944;5.304;2023-06-04T04:54:08;4.00;;;2.30;;
19251;SDS011;9760;50.944;5.304;2023-06-04T04:56:33;5.30;;;2.03;;
19251;SDS011;9760;50.944;5.304;2023-06-04T04:59:00;5.07;;;2.50;;
19251;SDS011;9760;50.944;5.304;2023-06-04T05:01:25;4.30;;;2.57;;
19251;SDS011;9760;50.944;5.304;2023-06-04T05:03:51;7.17;;;2.37;;
19251;SDS011;9760;50.944;5.304;2023-06-04T05:06:17;7.57;;;2.50;;
19251;SDS011;9760;50.944;5.304;2023-06-04T05:08:43;4.10;;;2.30;;
19251;SDS011;9760;50.944;5.304;2023-06-04T05:11:09;3.57;;;2.33;;
19251;SDS011;9760;50.944;5.304;2023-06-04T05:13:35;8.97;;;2.63;;
19251;SDS011;9760;50.944;5.304;2023-06-04T05:16:01;4.30;;;1.97;;
19251;SDS011;9760;50.944;5.304;2023-06-04T05:18:34;6.90;;;2.77;;
19251;SDS011;9760;50.944;5.304;2023-06-04T05:21:05;6.50;;;2.30;;
19251;SDS011;9760;50.944;5.304;2023-06-04T05:23:31;3.50;;;2.37;;
19251;SDS011;9760;50.944;5.304;2023-06-04T05:25:58;8.80;;;2.40;;
19251;SDS011;9760;50.944;5.304;2023-06-04T05:28:24;4.63;;;2.10;;
19251;SDS011;9760;50.944;5.304;2023-06-04T05:30:51;7.70;;;2.47;;
19251;SDS011;9760;50.944;5.304;2023-06-04T05:33:17;7.47;;;2.27;;
19251;SDS011;9760;50.944;5.304;2023-06-04T05:35:51;5.13;;;2.70;;
19251;SDS011;9760;50.944;5.304;2023-06-04T05:38:18;7.17;;;2.50;;
19251;SDS011;9760;50.944;5.304;2023-06-04T05:40:45;6.77;;;2.83;;
19251;SDS011;9760;50.944;5.304;2023-06-04T05:43:11;8.27;;;2.53;;
19251;SDS011;9760;50.944;5.304;2023-06-04T05:45:37;7.63;;;2.30;;
19251;SDS011;9760;50.944;5.304;2023-06-04T05:48:03;6.50;;;2.33;;
19251;SDS011;9760;50.944;5.304;2023-06-04T05:50:29;6.00;;;2.33;;
19251;SDS011;9760;50.944;5.304;2023-06-04T05:52:55;4.23;;;2.30;;
19251;SDS011;9760;50.944;5.304;2023-06-04T05:55:21;4.67;;;2.10;;
19251;SDS011;9760;50.944;5.304;2023-06-04T05:57:48;5.27;;;2.33;;
19251;SDS011;9760;50.944;5.304;2023-06-04T06:00:14;7.43;;;2.40;;
19251;SDS011;9760;50.944;5.304;2023-06-04T06:02:40;5.33;;;2.23;;
19251;SDS011;9760;50.944;5.304;2023-06-04T06:05:05;5.33;;;2.50;;
19251;SDS011;9760;50.944;5.304;2023-06-04T06:07:34;6.60;;;2.50;;
19251;SDS011;9760;50.944;5.304;2023-06-04T06:10:00;7.93;;;2.40;;
19251;SDS011;9760;50.944;5.304;2023-06-04T06:12:27;6.67;;;2.17;;
19251;SDS011;9760;50.944;5.304;2023-06-04T06:14:53;3.57;;;2.30;;
19251;SDS011;9760;50.944;5.304;2023-06-04T06:17:19;8.23;;;2.27;;
19251;SDS011;9760;50.944;5.304;2023-06-04T06:19:44;4.17;;;2.10;;
19251;SDS011;9760;50.944;5.304;2023-06-04T06:22:10;5.40;;;2.23;;
19251;SDS011;9760;50.944;5.304;2023-06-04T06:24:36;5.67;;;2.00;;
19251;SDS011;9760;50.944;5.304;2023-06-04T06:27:02;4.57;;;2.30;;
19251;SDS011;9760;50.944;5.304;2023-06-04T06:29:28;9.00;;;2.80;;
19251;SDS011;9760;50.944;5.304;2023-06-04T06:31:53;6.27;;;2.20;;
19251;SDS011;9760;50.944;5.304;2023-06-04T06:34:19;6.77;;;2.40;;
19251;SDS011;9760;50.944;5.304;2023-06-04T06:36:45;12.70;;;2.60;;
19251;SDS011;9760;50.944;5.304;2023-06-04T06:39:11;7.17;;;2.50;;
19251;SDS011;9760;50.944;5.304;2023-06-04T06:41:37;10.90;;;2.97;;
19251;SDS011;9760;50.944;5.304;2023-06-04T06:44:03;7.10;;;1.97;;
19251;SDS011;9760;50.944;5.304;2023-06-04T06:46:29;9.53;;;2.43;;
19251;SDS011;9760;50.944;5.304;2023-06-04T06:48:55;6.77;;;2.23;;
19251;SDS011;9760;50.944;5.304;2023-06-04T06:51:21;5.87;;;2.30;;
19251;SDS011;9760;50.944;5.304;2023-06-04T06:53:48;4.77;;;2.10;;
19251;SDS011;9760;50.944;5.304;2023-06-04T06:56:15;4.90;;;2.07;;
19251;SDS011;9760;50.944;5.304;2023-06-04T06:58:40;4.33;;;2.20;;
19251;SDS011;9760;50.944;5.304;2023-06-04T07:01:06;6.93;;;2.00;;
19251;SDS011;9760;50.944;5.304;2023-06-04T07:03:32;4.90;;;2.40;;
19251;SDS011;9760;50.944;5.304;2023-06-04T07:05:57;11.70;;;2.33;;
19251;SDS011;9760;50.944;5.304;2023-06-04T07:08:23;7.97;;;2.47;;
19251;SDS011;9760;50.944;5.304;2023-06-04T07:10:49;3.47;;;2.13;;
19251;SDS011;9760;50.944;5.304;2023-06-04T07:13:14;4.50;;;2.03;;
19251;SDS011;9760;50.944;5.304;2023-06-04T07:15:40;4.57;;;1.93;;
19251;SDS011;9760;50.944;5.304;2023-06-04T07:18:06;5.23;;;1.87;;
19251;SDS011;9760;50.944;5.304;2023-06-04T07:20:31;6.83;;;1.93;;
19251;SDS011;9760;50.944;5.304;2023-06-04T07:22:57;11.00;;;1.90;;
19251;SDS011;9760;50.944;5.304;2023-06-04T07:25:22;5.90;;;1.87;;
19251;SDS011;9760;50.944;5.304;2023-06-04T07:27:48;5.13;;;2.07;;
19251;SDS011;9760;50.944;5.304;2023-06-04T07:30:17;4.30;;;1.90;;
19251;SDS011;9760;50.944;5.304;2023-06-04T07:32:49;6.83;;;2.27;;
19251;SDS011;9760;50.944;5.304;2023-06-04T07:35:15;7.43;;;2.33;;
19251;SDS011;9760;50.944;5.304;2023-06-04T07:37:42;6.40;;;2.30;;
19251;SDS011;9760;50.944;5.304;2023-06-04T07:40:12;6.77;;;1.97;;
19251;SDS011;9760;50.944;5.304;2023-06-04T07:42:39;5.30;;;1.97;;
19251;SDS011;9760;50.944;5.304;2023-06-04T07:45:05;3.63;;;2.07;;
19251;SDS011;9760;50.944;5.304;2023-06-04T07:47:32;4.73;;;1.97;;
19251;SDS011;9760;50.944;5.304;2023-06-04T07:49:57;5.57;;;2.13;;
19251;SDS011;9760;50.944;5.304;2023-06-04T07:52:23;8.93;;;1.90;;
19251;SDS011;9760;50.944;5.304;2023-06-04T07:54:48;8.30;;;2.07;;
19251;SDS011;9760;50.944;5.304;2023-06-04T07:57:14;3.73;;;1.80;;
19251;SDS011;9760;50.944;5.304;2023-06-04T07:59:40;5.77;;;2.03;;
19251;SDS011;9760;50.944;5.304;2023-06-04T08:02:05;8.70;;;1.50;;
19251;SDS011;9760;50.944;5.304;2023-06-04T08:04:31;4.80;;;1.70;;
19251;SDS011;9760;50.944;5.304;2023-06-04T08:06:57;9.20;;;1.80;;
19251;SDS011;9760;50.944;5.304;2023-06-04T08:09:22;7.07;;;1.83;;
19251;SDS011;9760;50.944;5.304;2023-06-04T08:11:48;4.23;;;1.80;;
19251;SDS011;9760;50.944;5.304;2023-06-04T08:14:14;5.17;;;1.57;;
19251;SDS011;9760;50.944;5.304;2023-06-04T08:16:40;6.83;;;1.90;;
19251;SDS011;9760;50.944;5.304;2023-06-04T08:19:06;4.67;;;1.70;;
19251;SDS011;9760;50.944;5.304;2023-06-04T08:21:33;8.33;;;2.23;;
19251;SDS011;9760;50.944;5.304;2023-06-04T08:23:59;2.73;;;1.33;;
19251;SDS011;9760;50.944;5.304;2023-06-04T08:26:25;8.07;;;1.70;;
19251;SDS011;9760;50.944;5.304;2023-06-04T08:28:52;12.47;;;1.93;;
19251;SDS011;9760;50.944;5.304;2023-06-04T08:31:18;11.83;;;1.97;;
19251;SDS011;9760;50.944;5.304;2023-06-04T08:33:46;5.47;;;1.70;;
19251;SDS011;9760;50.944;5.304;2023-06-04T08:36:12;10.63;;;1.60;;
19251;SDS011;9760;50.944;5.304;2023-06-04T08:38:39;6.00;;;1.70;;
19251;SDS011;9760;50.944;5.304;2023-06-04T08:43:55;6.97;;;1.40;;
19251;SDS011;9760;50.944;5.304;2023-06-04T08:46:22;5.27;;;1.80;;
19251;SDS011;9760;50.944;5.304;2023-06-04T08:48:49;4.43;;;1.80;;
19251;SDS011;9760;50.944;5.304;2023-06-04T08:51:15;2.97;;;1.40;;
19251;SDS011;9760;50.944;5.304;2023-06-04T08:53:42;11.07;;;1.73;;
19251;SDS011;9760;50.944;5.304;2023-06-04T08:56:08;4.83;;;1.50;;
19251;SDS011;9760;50.944;5.304;2023-06-04T08:58:35;5.23;;;1.97;;
19251;SDS011;9760;50.944;5.304;2023-06-04T09:01:02;8.80;;;1.60;;
19251;SDS011;9760;50.944;5.304;2023-06-04T09:03:28;5.33;;;1.90;;
19251;SDS011;9760;50.944;5.304;2023-06-04T09:05:57;5.87;;;1.80;;
19251;SDS011;9760;50.944;5.304;2023-06-04T09:08:24;10.60;;;1.80;;
19251;SDS011;9760;50.944;5.304;2023-06-04T09:10:51;5.30;;;2.10;;
19251;SDS011;9760;50.944;5.304;2023-06-04T09:13:19;5.00;;;1.60;;
19251;SDS011;9760;50.944;5.304;2023-06-04T09:15:58;11.83;;;2.23;;
19251;SDS011;9760;50.944;5.304;2023-06-04T09:18:27;5.83;;;1.73;;
19251;SDS011;9760;50.944;5.304;2023-06-04T09:21:00;4.60;;;1.80;;
19251;SDS011;9760;50.944;5.304;2023-06-04T09:23:35;3.60;;;1.50;;
19251;SDS011;9760;50.944;5.304;2023-06-04T09:26:10;6.03;;;1.60;;
19251;SDS011;9760;50.944;5.304;2023-06-04T09:28:40;3.90;;;1.90;;
19251;SDS011;9760;50.944;5.304;2023-06-04T09:31:12;3.67;;;1.40;;
19251;SDS011;9760;50.944;5.304;2023-06-04T09:33:48;9.07;;;1.63;;
19251;SDS011;9760;50.944;5.304;2023-06-04T09:36:14;5.17;;;1.50;;
19251;SDS011;9760;50.944;5.304;2023-06-04T09:38:40;5.83;;;1.27;;
19251;SDS011;9760;50.944;5.304;2023-06-04T09:41:13;2.47;;;1.73;;
19251;SDS011;9760;50.944;5.304;2023-06-04T09:43:40;6.50;;;1.80;;
19251;SDS011;9760;50.944;5.304;2023-06-04T09:46:10;6.03;;;1.60;;
19251;SDS011;9760;50.944;5.304;2023-06-04T09:48:40;3.53;;;1.67;;
19251;SDS011;9760;50.944;5.304;2023-06-04T09:51:07;10.93;;;1.53;;
19251;SDS011;9760;50.944;5.304;2023-06-04T09:53:33;5.50;;;1.47;;
19251;SDS011;9760;50.944;5.304;2023-06-04T09:56:02;9.87;;;1.70;;
19251;SDS011;9760;50.944;5.304;2023-06-04T09:58:29;7.57;;;1.63;;
19251;SDS011;9760;50.944;5.304;2023-06-04T10:00:56;4.43;;;1.53;;
19251;SDS011;9760;50.944;5.304;2023-06-04T10:03:30;5.87;;;1.77;;
19251;SDS011;9760;50.944;5.304;2023-06-04T10:06:01;5.87;;;1.47;;
19251;SDS011;9760;50.944;5.304;2023-06-04T10:08:29;4.30;;;1.53;;
19251;SDS011;9760;50.944;5.304;2023-06-04T10:10:56;4.17;;;1.63;;
19251;SDS011;9760;50.944;5.304;2023-06-04T10:13:30;6.63;;;1.80;;
19251;SDS011;9760;50.944;5.304;2023-06-04T10:16:16;6.13;;;1.50;;
19251;SDS011;9760;50.944;5.304;2023-06-04T10:18:43;16.63;;;2.00;;
19251;SDS011;9760;50.944;5.304;2023-06-04T10:21:09;6.67;;;1.70;;
19251;SDS011;9760;50.944;5.304;2023-06-04T10:23:38;5.43;;;1.43;;
19251;SDS011;9760;50.944;5.304;2023-06-04T10:26:04;12.03;;;1.57;;
19251;SDS011;9760;50.944;5.304;2023-06-04T10:28:30;7.03;;;1.57;;
19251;SDS011;9760;50.944;5.304;2023-06-04T10:30:58;8.13;;;1.60;;
19251;SDS011;9760;50.944;5.304;2023-06-04T10:33:24;2.23;;;1.37;;
19251;SDS011;9760;50.944;5.304;2023-06-04T10:35:50;3.80;;;1.57;;
19251;SDS011;9760;50.944;5.304;2023-06-04T10:38:18;3.90;;;1.27;;
19251;SDS011;9760;50.944;5.304;2023-06-04T10:40:46;5.30;;;1.43;;
19251;SDS011;9760;50.944;5.304;2023-06-04T10:43:12;2.80;;;1.50;;
19251;SDS011;9760;50.944;5.304;2023-06-04T10:45:41;4.37;;;1.60;;
19251;SDS011;9760;50.944;5.304;2023-06-04T10:48:08;4.30;;;1.53;;
19251;SDS011;9760;50.944;5.304;2023-06-04T10:50:35;7.63;;;1.30;;
19251;SDS011;9760;50.944;5.304;2023-06-04T10:53:13;3.83;;;1.50;;
19251;SDS011;9760;50.944;5.304;2023-06-04T10:55:46;8.23;;;1.60;;
19251;SDS011;9760;50.944;5.304;2023-06-04T10:58:12;5.90;;;1.83;;
19251;SDS011;9760;50.944;5.304;2023-06-04T11:00:39;6.40;;;1.47;;
19251;SDS011;9760;50.944;5.304;2023-06-04T11:03:11;3.20;;;1.40;;
19251;SDS011;9760;50.944;5.304;2023-06-04T11:05:38;5.00;;;1.73;;
19251;SDS011;9760;50.944;5.304;2023-06-04T11:08:08;4.37;;;1.60;;
19251;SDS011;9760;50.944;5.304;2023-06-04T11:10:40;6.83;;;1.50;;
19251;SDS011;9760;50.944;5.304;2023-06-04T11:13:07;7.20;;;1.87;;
19251;SDS011;9760;50.944;5.304;2023-06-04T11:15:43;3.27;;;1.37;;
19251;SDS011;9760;50.944;5.304;2023-06-04T11:18:13;8.33;;;2.07;;
19251;SDS011;9760;50.944;5.304;2023-06-04T11:20:46;7.20;;;2.10;;
19251;SDS011;9760;50.944;5.304;2023-06-04T11:23:14;5.60;;;1.73;;
19251;SDS011;9760;50.944;5.304;2023-06-04T11:25:41;7.67;;;2.13;;
19251;SDS011;9760;50.944;5.304;2023-06-04T11:28:14;7.70;;;1.80;;
19251;SDS011;9760;50.944;5.304;2023-06-04T11:30:41;7.73;;;1.80;;
19251;SDS011;9760;50.944;5.304;2023-06-04T11:33:07;9.13;;;1.80;;
19251;SDS011;9760;50.944;5.304;2023-06-04T11:35:39;7.10;;;1.57;;
19251;SDS011;9760;50.944;5.304;2023-06-04T11:38:06;6.63;;;1.73;;
19251;SDS011;9760;50.944;5.304;2023-06-04T11:40:32;8.20;;;1.70;;
19251;SDS011;9760;50.944;5.304;2023-06-04T11:42:58;5.20;;;1.60;;
19251;SDS011;9760;50.944;5.304;2023-06-04T11:45:23;5.13;;;1.87;;
19251;SDS011;9760;50.944;5.304;2023-06-04T11:47:53;6.57;;;1.67;;
19251;SDS011;9760;50.944;5.304;2023-06-04T11:50:21;7.60;;;1.90;;
19251;SDS011;9760;50.944;5.304;2023-06-04T11:52:47;6.63;;;1.57;;
19251;SDS011;9760;50.944;5.304;2023-06-04T11:55:14;5.03;;;1.47;;
19251;SDS011;9760;50.944;5.304;2023-06-04T11:57:42;6.90;;;1.70;;
19251;SDS011;9760;50.944;5.304;2023-06-04T12:00:08;3.80;;;1.43;;
19251;SDS011;9760;50.944;5.304;2023-06-04T12:02:36;9.53;;;1.70;;
19251;SDS011;9760;50.944;5.304;2023-06-04T12:05:14;7.77;;;1.70;;
19251;SDS011;9760;50.944;5.304;2023-06-04T12:07:43;4.03;;;1.40;;
19251;SDS011;9760;50.944;5.304;2023-06-04T12:10:09;5.60;;;1.50;;
19251;SDS011;9760;50.944;5.304;2023-06-04T12:12:37;5.00;;;1.57;;
19251;SDS011;9760;50.944;5.304;2023-06-04T12:15:03;5.13;;;1.47;;
19251;SDS011;9760;50.944;5.304;2023-06-04T12:17:30;8.93;;;1.50;;
19251;SDS011;9760;50.944;5.304;2023-06-04T12:19:56;4.93;;;1.30;;
19251;SDS011;9760;50.944;5.304;2023-06-04T12:22:23;3.53;;;1.40;;
19251;SDS011;9760;50.944;5.304;2023-06-04T12:24:53;3.37;;;1.53;;
19251;SDS011;9760;50.944;5.304;2023-06-04T12:27:24;4.87;;;1.80;;
19251;SDS011;9760;50.944;5.304;2023-06-04T12:32:22;6.53;;;1.73;;
19251;SDS011;9760;50.944;5.304;2023-06-04T12:34:47;5.10;;;1.50;;
19251;SDS011;9760;50.944;5.304;2023-06-04T12:37:13;5.07;;;1.40;;
19251;SDS011;9760;50.944;5.304;2023-06-04T12:39:39;3.67;;;1.80;;
19251;SDS011;9760;50.944;5.304;2023-06-04T12:42:05;8.00;;;1.50;;
19251;SDS011;9760;50.944;5.304;2023-06-04T12:44:32;3.20;;;1.67;;
19251;SDS011;9760;50.944;5.304;2023-06-04T12:46:58;7.63;;;2.07;;
19251;SDS011;9760;50.944;5.304;2023-06-04T12:49:23;10.27;;;2.40;;
19251;SDS011;9760;50.944;5.304;2023-06-04T12:51:49;8.93;;;1.90;;
19251;SDS011;9760;50.944;5.304;2023-06-04T12:54:15;6.10;;;1.77;;
19251;SDS011;9760;50.944;5.304;2023-06-04T12:56:40;2.47;;;1.33;;
19251;SDS011;9760;50.944;5.304;2023-06-04T12:59:08;3.97;;;1.73;;
19251;SDS011;9760;50.944;5.304;2023-06-04T13:01:33;4.83;;;1.60;;
19251;SDS011;9760;50.944;5.304;2023-06-04T13:03:59;4.07;;;1.70;;
19251;SDS011;9760;50.944;5.304;2023-06-04T13:06:25;7.60;;;1.80;;
19251;SDS011;9760;50.944;5.304;2023-06-04T13:08:51;3.70;;;1.67;;
19251;SDS011;9760;50.944;5.304;2023-06-04T13:11:16;8.00;;;1.87;;
19251;SDS011;9760;50.944;5.304;2023-06-04T13:13:42;7.37;;;1.70;;
19251;SDS011;9760;50.944;5.304;2023-06-04T13:16:08;4.60;;;1.77;;
19251;SDS011;9760;50.944;5.304;2023-06-04T13:18:34;6.73;;;1.93;;
19251;SDS011;9760;50.944;5.304;2023-06-04T13:21:00;8.03;;;2.30;;
19251;SDS011;9760;50.944;5.304;2023-06-04T13:23:26;8.30;;;1.90;;
19251;SDS011;9760;50.944;5.304;2023-06-04T13:25:52;2.93;;;1.67;;
19251;SDS011;9760;50.944;5.304;2023-06-04T13:28:17;5.20;;;1.77;;
19251;SDS011;9760;50.944;5.304;2023-06-04T13:30:43;6.07;;;1.97;;
19251;SDS011;9760;50.944;5.304;2023-06-04T13:33:09;7.27;;;1.77;;
19251;SDS011;9760;50.944;5.304;2023-06-04T13:35:35;3.73;;;1.70;;
19251;SDS011;9760;50.944;5.304;2023-06-04T13:38:02;5.10;;;1.60;;
19251;SDS011;9760;50.944;5.304;2023-06-04T13:40:29;3.90;;;1.67;;
19251;SDS011;9760;50.944;5.304;2023-06-04T13:42:54;2.33;;;1.40;;
19251;SDS011;9760;50.944;5.304;2023-06-04T13:45:20;5.90;;;1.90;;
19251;SDS011;9760;50.944;5.304;2023-06-04T13:47:49;2.90;;;1.50;;
19251;SDS011;9760;50.944;5.304;2023-06-04T13:50:15;2.77;;;1.73;;
19251;SDS011;9760;50.944;5.304;2023-06-04T13:52:40;13.70;;;2.20;;
19251;SDS011;9760;50.944;5.304;2023-06-04T13:55:06;5.70;;;1.80;;
19251;SDS011;9760;50.944;5.304;2023-06-04T13:57:32;11.23;;;2.17;;
19251;SDS011;9760;50.944;5.304;2023-06-04T13:59:57;3.50;;;1.83;;
19251;SDS011;9760;50.944;5.304;2023-06-04T14:02:23;8.63;;;1.73;;
19251;SDS011;9760;50.944;5.304;2023-06-04T14:04:49;6.60;;;1.50;;
19251;SDS011;9760;50.944;5.304;2023-06-04T14:07:16;2.63;;;1.37;;
19251;SDS011;9760;50.944;5.304;2023-06-04T14:09:42;3.17;;;1.50;;
19251;SDS011;9760;50.944;5.304;2023-06-04T14:12:08;5.57;;;1.43;;
19251;SDS011;9760;50.944;5.304;2023-06-04T14:14:33;1.40;;;1.10;;
19251;SDS011;9760;50.944;5.304;2023-06-04T14:17:02;3.37;;;1.20;;
19251;SDS011;9760;50.944;5.304;2023-06-04T14:19:29;4.33;;;1.63;;
19251;SDS011;9760;50.944;5.304;2023-06-04T14:21:55;4.43;;;1.60;;
19251;SDS011;9760;50.944;5.304;2023-06-04T14:24:20;8.27;;;1.70;;
19251;SDS011;9760;50.944;5.304;2023-06-04T14:26:46;6.10;;;1.63;;
19251;SDS011;9760;50.944;5.304;2023-06-04T14:29:12;2.77;;;1.63;;
19251;SDS011;9760;50.944;5.304;2023-06-04T14:31:38;3.73;;;1.60;;
19251;SDS011;9760;50.944;5.304;2023-06-04T14:34:04;7.03;;;1.63;;
19251;SDS011;9760;50.944;5.304;2023-06-04T14:36:32;4.50;;;1.50;;
19251;SDS011;9760;50.944;5.304;2023-06-04T14:38:58;3.47;;;1.40;;
19251;SDS011;9760;50.944;5.304;2023-06-04T14:41:23;3.70;;;1.50;;
19251;SDS011;9760;50.944;5.304;2023-06-04T14:43:49;2.17;;;1.57;;
19251;SDS011;9760;50.944;5.304;2023-06-04T14:46:14;2.90;;;1.30;;
19251;SDS011;9760;50.944;5.304;2023-06-04T14:48:41;5.87;;;1.93;;
19251;SDS011;9760;50.944;5.304;2023-06-04T14:51:06;5.63;;;1.50;;
19251;SDS011;9760;50.944;5.304;2023-06-04T14:53:32;8.27;;;1.40;;
19251;SDS011;9760;50.944;5.304;2023-06-04T14:55:58;10.43;;;1.70;;
19251;SDS011;9760;50.944;5.304;2023-06-04T14:58:23;4.50;;;1.73;;
19251;SDS011;9760;50.944;5.304;2023-06-04T15:00:49;6.37;;;1.30;;
19251;SDS011;9760;50.944;5.304;2023-06-04T15:03:14;5.50;;;1.53;;
19251;SDS011;9760;50.944;5.304;2023-06-04T15:05:40;4.37;;;1.70;;